Time;durP1;ratioP1;P1;durP2;ratioP2;P2;SDS_P1;SDS_P2;PMS_P1;PMS_P2;Temp;Humidity;BMP_temperature;BMP_pressure;BME280_temperature;BME280_humidity;BME280_pressure;Samples;Min_cycle;Max_cycle;Signal;HPM_P1;HPM_P2
2023/10/11 00:02:56;;;;;;;0.20;0.20;;;;;;;14.47;100.00;99059.97;5085194;28;20080;-65
2023/10/11 00:05:22;;;;;;;0.20;0.20;;;;;;;14.40;100.00;99054.16;5084550;28;20028;-64
2023/10/11 00:07:48;;;;;;;0.40;0.40;;;;;;;14.47;100.00;99058.16;5084708;28;20016;-65
2023/10/11 00:10:19;;;;;;;0.20;0.20;;;;;;;14.44;100.00;99065.31;5066929;28;20028;-64
2023/10/11 00:12:45;;;;;;;0.63;0.63;;;;;;;14.42;100.00;99062.78;5084852;28;20017;-65
2023/10/11 00:15:11;;;;;;;0.20;0.20;;;;;;;14.45;100.00;99051.34;5084277;28;20412;-65
2023/10/11 00:17:36;;;;;;;0.20;0.20;;;;;;;14.46;100.00;99055.63;5084671;28;20028;-64
2023/10/11 00:22:48;;;;;;;0.20;0.20;;;;;;;14.49;100.00;99058.09;5085056;28;20086;-65
2023/10/11 00:25:23;;;;;;;0.38;0.38;;;;;;;14.49;100.00;99055.50;5084739;28;20043;-64
2023/10/11 00:27:49;;;;;;;2.63;1.67;;;;;;;14.53;100.00;99043.16;5084685;28;20021;-65
2023/10/11 00:30:17;;;;;;;0.40;0.40;;;;;;;14.58;100.00;99033.34;5084470;28;20024;-66
2023/10/11 00:32:45;;;;;;;0.20;0.20;;;;;;;14.58;100.00;99036.81;5084827;28;20020;-66
2023/10/11 00:35:18;;;;;;;0.20;0.20;;;;;;;14.55;100.00;99047.41;5084237;28;20056;-64
2023/10/11 00:37:45;;;;;;;0.40;0.40;;;;;;;14.54;100.00;99030.00;5084972;28;20032;-65
2023/10/11 00:40:14;;;;;;;0.22;0.22;;;;;;;14.57;100.00;99021.22;5084505;28;20046;-64
2023/10/11 00:42:39;;;;;;;2.15;2.05;;;;;;;14.59;100.00;99016.72;5084404;28;20021;-65
2023/10/11 00:45:07;;;;;;;1.48;1.33;;;;;;;14.60;100.00;99027.09;5084379;28;20045;-65
2023/10/11 00:47:40;;;;;;;16.92;4.53;;;;;;;14.60;100.00;99008.81;5084634;28;20029;-63
2023/10/11 00:50:14;;;;;;;0.20;0.20;;;;;;;14.50;100.00;99013.63;5066378;28;20031;-66
2023/10/11 00:52:43;;;;;;;3.03;1.48;;;;;;;14.55;100.00;99025.66;5084346;28;20020;-65
2023/10/11 00:55:16;;;;;;;0.20;0.20;;;;;;;14.57;100.00;99023.81;5084433;28;20051;-64
2023/10/11 00:57:45;;;;;;;0.20;0.20;;;;;;;14.55;100.00;99004.75;5084365;28;20024;-66
2023/10/11 01:00:14;;;;;;;2.05;1.85;;;;;;;14.62;100.00;99001.78;5084236;28;20438;-65
2023/10/11 01:02:39;;;;;;;4.22;2.08;;;;;;;14.54;100.00;98987.38;5084445;28;20337;-65
2023/10/11 01:05:06;;;;;;;2.85;2.70;;;;;;;14.56;100.00;98986.41;5085179;28;20024;-65
2023/10/11 01:07:32;;;;;;;1.85;1.75;;;;;;;14.54;100.00;98985.63;5087944;28;20050;-65
2023/10/11 01:09:57;;;;;;;2.08;1.30;;;;;;;14.50;100.00;98990.13;5069502;28;20032;-65
2023/10/11 01:12:22;;;;;;;0.30;0.30;;;;;;;14.55;100.00;99000.38;5087938;28;20108;-64
2023/10/11 01:14:57;;;;;;;0.50;0.50;;;;;;;14.53;100.00;98976.09;5087609;28;20081;-64
2023/10/11 01:17:23;;;;;;;0.20;0.20;;;;;;;14.47;100.00;98977.22;5087935;28;20043;-65
2023/10/11 01:19:51;;;;;;;0.35;0.35;;;;;;;14.38;100.00;98967.22;5087388;28;20024;-64
2023/10/11 01:22:17;;;;;;;0.30;0.30;;;;;;;14.40;100.00;98968.00;5087750;28;20043;-64
2023/10/11 01:24:44;;;;;;;1.13;1.13;;;;;;;14.36;100.00;98950.81;5087940;28;20051;-65
2023/10/11 01:27:13;;;;;;;10.23;0.98;;;;;;;14.38;100.00;98957.63;5087805;28;20017;-64
2023/10/11 01:29:40;;;;;;;0.20;0.20;;;;;;;14.35;100.00;98938.66;5087259;28;20025;-64
2023/10/11 01:32:06;;;;;;;0.25;0.25;;;;;;;14.44;100.00;98953.06;5069568;28;20020;-65
2023/10/11 01:34:32;;;;;;;0.40;0.40;;;;;;;14.40;100.00;98938.44;5087561;28;20059;-65
2023/10/11 01:36:57;;;;;;;0.45;0.45;;;;;;;14.37;100.00;98922.03;5087191;28;20043;-65
2023/10/11 01:39:23;;;;;;;0.55;0.45;;;;;;;14.43;100.00;98938.28;5087628;28;20028;-65
2023/10/11 01:41:49;;;;;;;0.20;0.20;;;;;;;14.35;100.00;98931.69;5069156;28;20036;-64
2023/10/11 01:44:15;;;;;;;0.20;0.20;;;;;;;14.44;100.00;98938.22;5087231;28;20191;-63
2023/10/11 01:46:41;;;;;;;0.43;0.43;;;;;;;14.42;100.00;98947.91;5086989;28;20032;-64
2023/10/11 01:49:10;;;;;;;0.30;0.30;;;;;;;14.44;100.00;98935.59;5087397;28;20464;-65
2023/10/11 01:51:39;;;;;;;0.63;0.63;;;;;;;14.40;100.00;98928.00;5086817;28;20167;-64
2023/10/11 01:54:06;;;;;;;0.22;0.22;;;;;;;14.44;100.00;98945.22;5087170;28;20035;-64
2023/10/11 01:56:32;;;;;;;0.30;0.30;;;;;;;14.43;100.00;98933.06;5068915;28;20028;-65
2023/10/11 01:59:01;;;;;;;0.30;0.30;;;;;;;14.46;100.00;98923.31;5087093;28;20028;-65
2023/10/11 02:01:30;;;;;;;0.30;0.30;;;;;;;14.47;100.00;98918.97;5086818;28;20023;-65
2023/10/11 02:04:03;;;;;;;0.20;0.20;;;;;;;14.46;100.00;98914.63;5086710;28;20027;-65
2023/10/11 02:06:31;;;;;;;0.30;0.30;;;;;;;14.47;100.00;98925.00;5086584;28;20025;-65
2023/10/11 02:08:57;;;;;;;0.32;0.32;;;;;;;14.46;100.00;98912.03;5086893;28;20082;-65
2023/10/11 02:11:29;;;;;;;0.25;0.25;;;;;;;14.50;100.00;98918.81;5086534;28;20024;-65
2023/10/11 02:13:57;;;;;;;0.30;0.30;;;;;;;14.53;100.00;98912.56;5086980;28;20036;-64
2023/10/11 02:16:23;;;;;;;1.77;1.20;;;;;;;14.52;100.00;98900.44;5086222;28;20032;-64
2023/10/11 02:18:58;;;;;;;0.20;0.20;;;;;;;14.54;100.00;98898.59;5086598;28;20029;-65
2023/10/11 02:21:24;;;;;;;1.00;1.00;;;;;;;14.50;100.00;98901.34;5069925;28;20034;-63
2023/10/11 02:23:49;;;;;;;0.45;0.45;;;;;;;14.52;100.00;98895.22;5086891;28;20076;-65
2023/10/11 02:26:16;;;;;;;0.40;0.40;;;;;;;14.50;100.00;98901.34;5068351;28;20377;-64
2023/10/11 02:28:43;;;;;;;0.50;0.50;;;;;;;14.48;100.00;98884.94;5086387;28;20017;-65
2023/10/11 02:31:13;;;;;;;0.40;0.40;;;;;;;14.53;100.00;98895.16;5086396;28;20032;-64
2023/10/11 02:33:39;;;;;;;0.63;0.35;;;;;;;14.55;100.00;98889.84;5086453;28;20473;-65
2023/10/11 02:36:08;;;;;;;0.85;0.57;;;;;;;14.57;100.00;98881.00;5086005;28;20033;-64
2023/10/11 02:38:50;;;;;;;0.30;0.30;;;;;;;14.55;100.00;98882.03;5086146;28;20078;-65
2023/10/11 02:41:21;;;;;;;;;;;;;;;14.61;100.00;98881.72;5086593;28;20123;-65
2023/10/11 02:43:50;;;;;;;0.60;0.60;;;;;;;14.60;100.00;98859.13;5086167;28;19915;-65
2023/10/11 02:46:16;;;;;;;0.22;0.22;;;;;;;14.59;100.00;98871.34;5085663;28;20094;-65
2023/10/11 02:48:46;;;;;;;0.30;0.30;;;;;;;14.62;100.00;98862.50;5068183;28;20024;-64
2023/10/11 02:51:24;;;;;;;0.20;0.20;;;;;;;14.63;100.00;98862.41;5085698;28;20017;-65
2023/10/11 02:53:52;;;;;;;0.47;0.47;;;;;;;14.63;100.00;98857.19;5086331;28;20020;-64
2023/10/11 02:56:18;;;;;;;1.25;1.15;;;;;;;14.62;100.00;98844.22;5085784;28;20086;-65
2023/10/11 02:58:45;;;;;;;0.20;0.20;;;;;;;14.63;100.00;98846.75;5086030;28;20031;-64
2023/10/11 03:01:22;;;;;;;0.32;0.32;;;;;;;14.66;100.00;98847.53;5085813;28;20021;-64
2023/10/11 03:03:48;;;;;;;1.67;1.58;;;;;;;14.67;100.00;98825.69;5085766;28;20539;-63
2023/10/11 03:06:13;;;;;;;0.20;0.20;;;;;;;14.66;100.00;98835.31;5067710;28;20054;-65
2023/10/11 03:08:40;;;;;;;0.30;0.30;;;;;;;14.69;100.00;98831.69;5085669;28;20024;-65
2023/10/11 03:11:08;;;;;;;0.20;0.20;;;;;;;14.70;100.00;98821.19;5085980;28;20024;-65
2023/10/11 03:13:43;;;;;;;2.33;2.22;;;;;;;14.70;100.00;98825.53;5085554;28;20072;-64
2023/10/11 03:16:13;;;;;;;0.38;0.38;;;;;;;14.68;100.00;98815.16;5085597;28;20028;-64
2023/10/11 03:18:42;;;;;;;1.67;1.58;;;;;;;14.69;100.00;98823.88;5067681;28;20024;-63
2023/10/11 03:21:19;;;;;;;0.30;0.30;;;;;;;14.66;100.00;98813.56;5085302;28;20021;-64
2023/10/11 03:23:49;;;;;;;0.75;0.75;;;;;;;14.60;100.00;98810.34;5085373;28;20012;-63
2023/10/11 03:26:22;;;;;;;5.03;3.03;;;;;;;14.63;100.00;98811.97;5085487;28;20039;-64
2023/10/11 03:28:57;;;;;;;0.20;0.20;;;;;;;14.68;100.00;98817.78;5084804;28;20024;-64
2023/10/11 03:31:23;;;;;;;1.55;1.45;;;;;;;14.69;100.00;98819.50;5085357;28;20044;-66
2023/10/11 03:33:49;;;;;;;0.30;0.30;;;;;;;14.70;100.00;98815.94;5085488;28;20534;-65
2023/10/11 03:36:18;;;;;;;0.20;0.20;;;;;;;14.78;100.00;98833.84;5085222;28;20024;-64
2023/10/11 03:38:54;;;;;;;0.30;0.30;;;;;;;14.79;100.00;98819.88;5085513;28;20027;-65
2023/10/11 03:41:29;;;;;;;0.20;0.20;;;;;;;14.73;100.00;98820.16;5085067;28;20072;-64
2023/10/11 03:44:00;;;;;;;0.63;0.63;;;;;;;14.76;100.00;98812.16;5085395;28;20013;-64
2023/10/11 03:46:28;;;;;;;59.53;3.03;;;;;;;14.79;100.00;98804.19;5067227;28;20051;-64
2023/10/11 03:49:02;;;;;;;2.08;1.95;;;;;;;14.76;100.00;98793.88;5085284;28;20029;-65
2023/10/11 03:51:28;;;;;;;0.68;0.52;;;;;;;14.74;100.00;98791.34;5084833;28;20119;-65
2023/10/11 03:53:54;;;;;;;5.47;1.33;;;;;;;14.72;100.00;98797.59;5085334;28;20028;-65
2023/10/11 03:56:19;;;;;;;0.20;0.20;;;;;;;14.73;100.00;98791.44;5084893;28;20051;-64
2023/10/11 03:58:45;;;;;;;0.63;0.63;;;;;;;14.74;100.00;98780.91;5085060;28;20031;-65
2023/10/11 04:01:23;;;;;;;0.30;0.30;;;;;;;14.73;100.00;98768.78;5084795;28;20465;-64
2023/10/11 04:03:49;;;;;;;0.68;0.68;;;;;;;14.70;100.00;98762.84;5085232;28;20051;-65
2023/10/11 04:06:15;;;;;;;0.20;0.20;;;;;;;14.65;100.00;98770.94;5084741;28;20024;-64
2023/10/11 04:09:02;;;;;;;1.25;0.90;;;;;;;14.68;100.00;98777.78;5085479;28;20035;-64
2023/10/11 04:11:36;;;;;;;1.95;1.85;;;;;;;14.72;100.00;98776.69;5084922;28;20028;-64
2023/10/11 04:14:02;;;;;;;0.20;0.20;;;;;;;14.72;100.00;98774.06;5085201;28;20024;-64
2023/10/11 04:16:28;;;;;;;3.50;1.95;;;;;;;14.72;100.00;98784.53;5084726;28;20063;-65
2023/10/11 04:18:54;;;;;;;1.70;1.60;;;;;;;14.69;100.00;98761.19;5084848;28;20031;-64
2023/10/11 04:21:35;;;;;;;0.38;0.38;;;;;;;14.76;100.00;98765.16;5084858;28;20020;-64
2023/10/11 04:24:06;;;;;;;1.15;1.15;;;;;;;14.77;100.00;98753.78;5083972;28;20025;-64
2023/10/11 04:29:06;;;;;;;0.40;0.40;;;;;;;14.80;100.00;98765.88;5084979;28;20100;-65
2023/10/11 04:31:36;;;;;;;0.60;0.60;;;;;;;14.80;100.00;98768.47;5084655;28;20023;-63
2023/10/11 04:34:02;;;;;;;0.60;0.57;;;;;;;14.81;100.00;98768.41;5067024;28;20020;-64
2023/10/11 04:36:28;;;;;;;0.20;0.20;;;;;;;14.83;100.00;98763.09;5084053;28;20024;-65
2023/10/11 04:39:03;;;;;;;0.20;0.20;;;;;;;14.85;100.00;98762.09;5085462;28;20032;-66
2023/10/11 04:41:37;;;;;;;0.88;0.88;;;;;;;14.84;100.00;98739.50;5088314;28;20430;-65
2023/10/11 04:44:13;;;;;;;3.42;3.13;;;;;;;14.82;100.00;98737.91;5088552;28;20052;-65
2023/10/11 04:46:44;;;;;;;0.30;0.30;;;;;;;14.79;100.00;98744.13;5088172;28;20063;-66
2023/10/11 04:49:19;;;;;;;0.30;0.30;;;;;;;14.83;100.00;98755.25;5088902;28;20020;-65
2023/10/11 04:51:46;;;;;;;2.25;2.15;;;;;;;14.80;100.00;98735.38;5088183;28;20055;-66
2023/10/11 04:54:18;;;;;;;2.92;2.78;;;;;;;14.75;100.00;98732.13;5088427;28;20110;-64
2023/10/11 04:59:12;;;;;;;0.50;0.50;;;;;;;14.81;100.00;98736.22;5088542;28;20056;-65
2023/10/11 05:04:27;;;;;;;1.73;1.63;;;;;;;14.81;100.00;98731.81;5088098;28;20029;-64
2023/10/11 05:06:53;;;;;;;0.30;0.30;;;;;;;14.81;100.00;98738.84;5087548;28;20032;-65
2023/10/11 05:09:29;;;;;;;0.30;0.30;;;;;;;14.78;100.00;98728.50;5088073;28;20103;-66
2023/10/11 05:14:53;;;;;;;0.35;0.35;;;;;;;14.78;100.00;98729.34;5087695;28;20025;-65
2023/10/11 05:30:11;;;;;;;0.30;0.30;;;;;;;14.82;100.00;98720.47;5087236;28;20060;-66
2023/10/11 05:32:54;;;;;;;0.20;0.20;;;;;;;14.82;100.00;98715.25;5069215;28;20016;-65
2023/10/11 05:35:43;;;;;;;0.30;0.30;;;;;;;14.81;100.00;98704.88;5087259;28;20036;-64
2023/10/11 05:51:49;;;;;;;0.90;0.82;;;;;;;14.54;100.00;98674.88;5084951;28;20062;-65
2023/10/11 05:54:15;;;;;;;0.57;0.55;;;;;;;14.54;100.00;98674.88;5068755;28;20025;-65
2023/10/11 05:56:47;;;;;;;29.33;1.83;;;;;;;14.47;100.00;98671.75;5086963;28;20483;-65
2023/10/11 05:59:14;;;;;;;0.77;0.75;;;;;;;14.42;100.00;98670.31;5087179;28;20047;-64
2023/10/11 06:01:47;;;;;;;0.22;0.22;;;;;;;14.46;100.00;98672.66;5087041;28;20028;-64
2023/10/11 06:04:14;;;;;;;0.40;0.40;;;;;;;14.43;100.00;98674.59;5087456;28;20380;-65
2023/10/11 06:06:42;;;;;;;0.20;0.20;;;;;;;14.46;100.00;98666.59;5068910;28;20017;-64
2023/10/11 06:09:16;;;;;;;1.50;1.45;;;;;;;14.46;100.00;98677.03;5087030;28;20020;-65
2023/10/11 06:11:47;;;;;;;0.70;0.70;;;;;;;14.48;100.00;98667.38;5086666;28;20031;-65
2023/10/11 06:14:19;;;;;;;3.25;1.42;;;;;;;14.50;100.00;98655.91;5087280;28;20108;-65
2023/10/11 06:16:58;;;;;;;;;;;;;;;14.54;100.00;98647.91;5086874;28;20029;-65
2023/10/11 06:19:27;;;;;;;1.20;1.17;;;;;;;14.50;100.00;98658.53;5087062;28;20409;-64
2023/10/11 06:21:57;;;;;;;0.20;0.20;;;;;;;14.49;100.00;98650.78;5086590;28;20088;-65
2023/10/11 06:24:33;;;;;;;0.28;0.28;;;;;;;14.55;100.00;98658.31;5085213;28;20025;-65
2023/10/11 06:29:53;;;;;;;0.20;0.20;;;;;;;14.47;100.00;98637.78;5086800;28;20031;-68
2023/10/11 06:32:20;;;;;;;0.20;0.20;;;;;;;14.38;100.00;98639.13;5086757;28;20452;-69
2023/10/11 06:34:47;;;;;;;0.20;0.20;;;;;;;14.35;100.00;98644.53;5086416;28;20111;-69
2023/10/11 06:37:17;;;;;;;0.45;0.45;;;;;;;14.31;100.00;98637.78;5086585;28;20016;-68
2023/10/11 06:42:21;;;;;;;7.88;2.10;;;;;;;14.32;100.00;98643.84;5086587;28;20035;-67
2023/10/11 06:44:47;;;;;;;0.30;0.30;;;;;;;14.29;100.00;98639.63;5085929;28;20040;-68
2023/10/11 06:47:18;;;;;;;1.05;0.57;;;;;;;14.27;100.00;98643.22;5086421;28;20048;-68
2023/10/11 06:49:47;;;;;;;0.40;0.40;;;;;;;14.29;100.00;98634.41;5086325;28;20054;-69
2023/10/11 06:52:19;;;;;;;0.20;0.20;;;;;;;14.29;100.00;98636.16;5086122;28;20685;-67
2023/10/11 06:54:48;;;;;;;0.30;0.30;;;;;;;14.32;100.00;98625.56;5086185;28;20108;-70
2023/10/11 06:57:19;;;;;;;0.28;0.28;;;;;;;14.25;100.00;98640.69;5086047;28;20074;-67
2023/10/11 06:59:49;;;;;;;0.25;0.25;;;;;;;14.25;100.00;98631.09;5067762;28;20090;-67
2023/10/11 07:02:31;;;;;;;1.85;1.75;;;;;;;14.20;100.00;98619.22;5084924;28;20058;-67
2023/10/11 07:05:06;;;;;;;1.20;1.17;;;;;;;14.13;100.00;98609.13;5085653;28;20031;-67
2023/10/11 07:07:35;;;;;;;1.17;1.17;;;;;;;14.23;100.00;98624.28;5067412;28;20055;-67
2023/10/11 07:10:05;;;;;;;0.30;0.30;;;;;;;14.17;100.00;98606.34;5085808;28;20016;-68
2023/10/11 07:12:40;;;;;;;0.20;0.20;;;;;;;14.16;100.00;98602.88;5085622;28;20103;-68
2023/10/11 07:15:09;;;;;;;0.95;0.95;;;;;;;14.23;100.00;98608.63;5086005;28;20476;-68
2023/10/11 07:17:38;;;;;;;0.20;0.20;;;;;;;14.19;100.00;98596.66;5085878;28;20097;-67
2023/10/11 07:20:47;;;;;;;0.30;0.30;;;;;;;14.22;100.00;98612.16;5085535;28;20384;-68
2023/10/11 07:22:49;;;;;;;0.20;0.20;;;;;;;14.25;100.00;98604.16;5084207;28;20093;-67
2023/10/11 07:28:02;;;;;;;0.30;0.30;;;;;;;14.23;100.00;98600.81;5085743;28;20094;-66
2023/10/11 07:30:37;;;;;;;0.20;0.20;;;;;;;14.18;100.00;98584.53;5085595;28;20031;-66
2023/10/11 07:33:04;;;;;;;0.20;0.20;;;;;;;14.22;100.00;98599.94;5085642;28;20026;-67
2023/10/11 07:35:29;;;;;;;0.30;0.30;;;;;;;14.22;100.00;98581.69;5084866;28;20365;-67
2023/10/11 07:37:56;;;;;;;5.68;3.33;;;;;;;14.16;100.00;98571.56;5085105;28;20031;-67
2023/10/11 07:40:33;;;;;;;0.38;0.38;;;;;;;14.15;100.00;98572.50;5084974;28;20020;-66
2023/10/11 07:42:58;;;;;;;0.20;0.20;;;;;;;14.12;100.00;98557.84;5085433;28;20021;-67
2023/10/11 07:45:26;;;;;;;0.90;0.90;;;;;;;14.17;100.00;98577.66;5084710;28;20041;-68
2023/10/11 07:47:52;;;;;;;0.50;0.50;;;;;;;14.15;100.00;98569.03;5085626;28;20025;-66
2023/10/11 07:50:23;;;;;;;0.20;0.20;;;;;;;14.16;100.00;98565.50;5085288;28;20052;-66
2023/10/11 07:52:49;;;;;;;0.35;0.35;;;;;;;14.20;100.00;98567.03;5085223;28;20020;-68
2023/10/11 07:55:17;;;;;;;0.43;0.43;;;;;;;14.12;100.00;98544.78;5085195;28;20028;-67
2023/10/11 07:57:45;;;;;;;0.20;0.20;;;;;;;14.17;100.00;98556.78;5084961;28;20020;-67
2023/10/11 08:00:18;;;;;;;0.20;0.20;;;;;;;14.16;100.00;98561.13;5085189;28;20047;-68
2023/10/11 08:02:55;;;;;;;0.65;0.65;;;;;;;14.17;100.00;98546.31;5085437;28;20046;-67
2023/10/11 08:05:21;;;;;;;0.68;0.68;;;;;;;14.13;100.00;98545.63;5067090;28;20442;-68
2023/10/11 08:07:47;;;;;;;0.25;0.25;;;;;;;14.14;100.00;98552.53;5084898;28;20028;-66
2023/10/11 08:10:33;;;;;;;0.95;0.95;;;;;;;14.13;100.00;98538.66;5085816;28;20021;-66
2023/10/11 08:13:14;;;;;;;0.30;0.30;;;;;;;14.08;100.00;98545.88;5085038;28;20020;-68
2023/10/11 08:15:39;;;;;;;0.40;0.40;;;;;;;14.05;100.00;98535.63;5070694;28;20047;-68
2023/10/11 08:18:04;;;;;;;0.20;0.20;;;;;;;14.05;100.00;98535.63;5071364;28;20123;-69
2023/10/11 08:20:30;;;;;;;1.65;1.58;;;;;;;14.06;100.00;98526.84;5071131;28;20027;-69
2023/10/11 08:22:56;;;;;;;0.20;0.20;;;;;;;14.08;100.00;98518.94;5088870;28;20115;-68
2023/10/11 08:25:27;;;;;;;0.65;0.65;;;;;;;14.10;100.00;98546.66;5089302;28;20100;-69
2023/10/11 08:28:10;;;;;;;0.30;0.30;;;;;;;14.10;100.00;98551.03;5089547;28;20498;-69
2023/10/11 08:30:37;;;;;;;0.20;0.20;;;;;;;14.19;100.00;98560.13;5088915;28;20042;-68
2023/10/11 08:33:04;;;;;;;0.75;0.75;;;;;;;14.19;100.00;98550.53;5088865;28;20024;-69
2023/10/11 08:35:32;;;;;;;2.65;2.45;;;;;;;14.21;100.00;98542.63;5088981;28;20039;-69
2023/10/11 08:38:04;;;;;;;0.20;0.20;;;;;;;14.24;100.00;98555.50;5088111;28;20043;-67
2023/10/11 08:40:34;;;;;;;;;;;;;;;14.25;100.00;98544.13;5089084;28;20527;-67
2023/10/11 08:43:01;;;;;;;0.20;0.20;;;;;;;14.20;100.00;98554.00;5089073;28;20364;-68
2023/10/11 08:45:32;;;;;;;0.28;0.28;;;;;;;14.19;100.00;98549.69;5088501;28;20066;-67
2023/10/11 08:48:05;;;;;;;0.40;0.40;;;;;;;14.16;100.00;98542.88;5071102;28;20036;-67
2023/10/11 08:50:36;;;;;;;0.20;0.20;;;;;;;14.22;100.00;98542.53;5088464;28;20260;-67
2023/10/11 08:53:08;;;;;;;0.20;0.20;;;;;;;14.24;100.00;98537.22;5088696;28;20087;-66
2023/10/11 08:55:35;;;;;;;0.30;0.30;;;;;;;14.22;100.00;98531.25;5088583;28;20127;-67
2023/10/11 08:58:04;;;;;;;0.80;0.80;;;;;;;14.26;100.00;98524.94;5070565;28;20059;-66
2023/10/11 09:00:31;;;;;;;0.28;0.28;;;;;;;14.28;100.00;98519.66;5070371;28;20024;-67
2023/10/11 09:02:58;;;;;;;0.20;0.20;;;;;;;14.21;100.00;98525.19;5088537;28;20380;-67
2023/10/11 09:05:42;;;;;;;1.75;1.65;;;;;;;14.28;100.00;98519.66;5088266;28;20140;-67
2023/10/11 09:08:20;;;;;;;0.30;0.30;;;;;;;14.27;100.00;98517.94;5088118;28;20017;-66
2023/10/11 09:10:49;;;;;;;0.28;0.28;;;;;;;14.25;100.00;98528.47;5070266;28;20020;-67
2023/10/11 09:13:25;;;;;;;0.20;0.20;;;;;;;14.27;100.00;98525.78;5070225;28;20384;-66
2023/10/11 09:15:54;;;;;;;0.20;0.20;;;;;;;14.27;100.00;98526.63;5087645;28;20052;-67
2023/10/11 09:18:20;;;;;;;0.25;0.25;;;;;;;14.32;100.00;98535.06;5086945;28;20031;-67
2023/10/11 09:20:55;;;;;;;0.30;0.30;;;;;;;14.29;100.00;98529.16;5088222;28;20088;-66
2023/10/11 09:23:37;;;;;;;0.20;0.20;;;;;;;14.27;100.00;98518.78;5070319;28;20078;-66
2023/10/11 09:26:05;;;;;;;;;;;;;;;14.35;100.00;98532.28;5087092;28;20078;-66
2023/10/11 09:28:33;;;;;;;0.20;0.20;;;;;;;14.29;100.00;98542.19;5088253;28;19909;-67
2023/10/11 09:31:12;;;;;;;0.20;0.20;;;;;;;14.21;100.00;98547.84;5088052;28;20017;-68
2023/10/11 09:33:48;;;;;;;0.28;0.28;;;;;;;14.18;100.00;98555.84;5088041;28;20464;-68
2023/10/11 09:36:16;;;;;;;0.20;0.20;;;;;;;14.10;100.00;98545.81;5087666;28;20033;-68
2023/10/11 09:38:42;;;;;;;0.20;0.20;;;;;;;13.95;100.00;98569.16;5088235;28;20047;-67
2023/10/11 09:41:08;;;;;;;0.20;0.20;;;;;;;13.85;100.00;98562.75;5087887;28;20443;-69
2023/10/11 09:43:44;;;;;;;0.20;0.20;;;;;;;13.82;100.00;98571.56;5069740;28;20028;-67
2023/10/11 09:46:13;;;;;;;0.20;0.20;;;;;;;13.71;100.00;98581.69;5087649;28;20045;-68
2023/10/11 09:48:42;;;;;;;0.68;0.68;;;;;;;13.70;100.00;98580.88;5087562;28;20047;-66
2023/10/11 09:51:14;;;;;;;0.20;0.20;;;;;;;13.63;100.00;98589.91;5087197;28;20024;-67
2023/10/11 09:53:50;;;;;;;0.20;0.20;;;;;;;13.59;100.00;98589.25;5087366;28;20024;-66
2023/10/11 09:56:48;;;;;;;0.28;0.28;;;;;;;13.56;100.00;98594.59;5087430;28;20029;-65
2023/10/11 09:59:46;;;;;;;0.20;0.20;;;;;;;13.53;100.00;98586.09;5085745;28;20092;-67
2023/10/11 10:02:31;;;;;;;0.30;0.30;;;;;;;13.48;100.00;98579.28;5086934;28;20025;-68
2023/10/11 10:04:57;;;;;;;0.25;0.25;;;;;;;13.40;100.00;98581.47;5087584;28;20025;-67
2023/10/11 10:07:42;;;;;;;2.20;1.85;;;;;;;13.35;100.00;98570.41;5068214;28;20024;-66
2023/10/11 10:10:25;;;;;;;0.20;0.20;;;;;;;13.32;100.00;98583.59;5068670;28;20048;-67
2023/10/11 10:13:09;;;;;;;0.20;0.20;;;;;;;13.22;100.00;98596.22;5087075;28;20024;-66
2023/10/11 10:15:47;;;;;;;0.20;0.20;;;;;;;13.11;100.00;98589.78;5087046;28;20051;-68
2023/10/11 10:18:17;;;;;;;0.20;0.20;;;;;;;13.11;100.00;98584.59;5087028;28;20108;-69
2023/10/11 10:20:44;;;;;;;0.20;0.20;;;;;;;12.96;100.00;98585.28;5087001;28;20076;-68
2023/10/11 10:23:15;;;;;;;0.20;0.20;;;;;;;12.94;100.00;98581.94;5086879;28;20017;-69
2023/10/11 10:25:48;;;;;;;0.30;0.30;;;;;;;12.87;100.00;98597.84;5086835;28;20111;-68
2023/10/11 10:28:45;;;;;;;0.20;0.20;;;;;;;12.82;100.00;98605.03;5086725;28;20250;-69
2023/10/11 10:31:19;;;;;;;0.22;0.22;;;;;;;12.77;100.00;98617.41;5087049;28;20024;-69
2023/10/11 10:33:51;;;;;;;0.30;0.30;;;;;;;12.77;100.00;98625.22;5086738;28;20020;-69
2023/10/11 10:36:43;;;;;;;0.30;0.30;;;;;;;12.76;100.00;98626.16;5068516;28;20032;-70
2023/10/11 10:41:36;;;;;;;0.20;0.20;;;;;;;12.62;100.00;98617.22;5086568;28;20029;-66
2023/10/11 10:44:11;;;;;;;0.20;0.20;;;;;;;12.54;100.00;98637.53;5068434;28;20024;-68
2023/10/11 10:46:55;;;;;;;0.20;0.20;;;;;;;12.42;100.00;98643.28;5068196;28;20035;-67
2023/10/11 10:49:40;;;;;;;0.30;0.30;;;;;;;12.21;100.00;98658.94;5086650;28;20031;-69
2023/10/11 10:52:30;;;;;;;0.20;0.20;;;;;;;11.88;100.00;98655.09;5085771;28;20039;-67
2023/10/11 10:55:01;;;;;;;0.20;0.20;;;;;;;11.70;100.00;98635.88;5085337;28;20029;-69
2023/10/11 10:57:41;;;;;;;0.30;0.30;;;;;;;11.59;100.00;98652.78;5085746;28;20031;-66
2023/10/11 11:00:25;;;;;;;0.30;0.30;;;;;;;11.46;100.00;98644.66;5085997;28;20056;-67
2023/10/11 11:02:50;;;;;;;0.30;0.30;;;;;;;11.43;100.00;98649.97;5085634;28;20029;-68
2023/10/11 11:05:18;;;;;;;0.20;0.20;;;;;;;11.40;100.00;98655.28;5085536;28;20086;-68
2023/10/11 11:07:49;;;;;;;0.30;0.30;;;;;;;11.38;100.00;98644.09;5086076;28;20031;-67
2023/10/11 11:10:19;;;;;;;10.20;2.45;;;;;;;11.38;100.00;98644.09;5086233;28;20024;-67
2023/10/11 11:12:45;;;;;;;0.20;0.20;;;;;;;11.35;100.00;98647.69;5085039;28;20469;-67
2023/10/11 11:15:13;;;;;;;0.20;0.20;;;;;;;11.40;100.00;98640.56;5085990;28;20028;-68
2023/10/11 11:17:46;;;;;;;0.30;0.30;;;;;;;11.42;100.00;98648.28;5085648;28;20047;-67
2023/10/11 11:22:46;;;;;;;0.30;0.30;;;;;;;11.43;100.00;98647.38;5085012;28;20021;-66
2023/10/11 11:28:14;;;;;;;0.30;0.30;;;;;;;11.52;100.00;98652.19;5084890;28;20021;-67
2023/10/11 11:30:43;;;;;;;0.20;0.20;;;;;;;11.52;100.00;98640.94;5085725;28;20028;-67
2023/10/11 11:33:27;;;;;;;0.30;0.30;;;;;;;11.48;100.00;98652.38;5085826;28;20020;-67
2023/10/11 11:35:55;;;;;;;0.30;0.30;;;;;;;11.47;100.00;98646.31;5067725;28;20036;-67
2023/10/11 11:38:21;;;;;;;0.30;0.30;;;;;;;11.46;100.00;98651.59;5085718;28;20017;-68
2023/10/11 11:40:48;;;;;;;0.30;0.30;;;;;;;11.49;100.00;98647.13;5085610;28;20507;-68
2023/10/11 11:43:20;;;;;;;0.20;0.20;;;;;;;11.52;100.00;98649.59;5067817;28;20126;-67
2023/10/11 11:45:47;;;;;;;0.32;0.32;;;;;;;11.50;100.00;98650.56;5067176;28;20051;-67
2023/10/11 11:48:23;;;;;;;4.05;3.40;;;;;;;11.54;100.00;98652.13;5067658;28;20045;-66
2023/10/11 11:50:49;;;;;;;0.20;0.20;;;;;;;11.61;100.00;98648.34;5085322;28;20107;-67
2023/10/11 11:53:18;;;;;;;0.20;0.20;;;;;;;11.62;100.00;98634.47;5066980;28;20024;-69
2023/10/11 11:55:44;;;;;;;4.97;3.15;;;;;;;11.71;100.00;98648.81;5085551;28;20020;-67
2023/10/11 11:58:16;;;;;;;0.30;0.30;;;;;;;11.92;100.00;98619.41;5085184;28;20023;-67
2023/10/11 12:00:45;;;;;;;0.30;0.30;;;;;;;11.93;100.00;98619.34;5085289;28;20024;-66
2023/10/11 12:03:11;;;;;;;0.20;0.20;;;;;;;12.11;100.00;98633.31;5085517;28;20093;-67
2023/10/11 12:05:40;;;;;;;0.20;0.20;;;;;;;12.23;100.00;98638.91;5085095;28;20025;-69
2023/10/11 12:08:08;;;;;;;0.30;0.30;;;;;;;12.54;99.71;98627.13;5067019;28;20024;-68
2023/10/11 12:10:37;;;;;;;0.30;0.30;;;;;;;12.61;99.10;98640.72;5085576;28;20020;-68
2023/10/11 12:13:05;;;;;;;0.43;0.43;;;;;;;12.71;99.13;98623.75;5085015;28;20032;-67
2023/10/11 12:15:37;;;;;;;0.30;0.30;;;;;;;12.76;97.74;98633.97;5085333;28;20021;-66
2023/10/11 12:18:05;;;;;;;0.20;0.20;;;;;;;12.79;98.57;98652.06;5084907;28;20468;-67
2023/10/11 12:20:35;;;;;;;0.20;0.20;;;;;;;12.76;98.33;98647.00;5085266;28;20028;-67
2023/10/11 12:23:11;;;;;;;0.30;0.30;;;;;;;12.73;98.42;98647.94;5084911;28;20484;-67
2023/10/11 12:25:38;;;;;;;0.30;0.30;;;;;;;12.54;97.30;98631.50;5084937;28;20107;-67
2023/10/11 12:28:08;;;;;;;2.20;1.67;;;;;;;12.51;97.24;98648.06;5085189;28;20020;-67
2023/10/11 12:30:36;;;;;;;0.30;0.30;;;;;;;12.56;96.71;98634.84;5085245;28;20384;-66
2023/10/11 12:33:09;;;;;;;0.20;0.20;;;;;;;12.44;96.76;98651.88;5085117;28;20020;-65
2023/10/11 12:35:39;;;;;;;0.30;0.30;;;;;;;12.46;96.16;98650.06;5084195;28;20021;-66
2023/10/11 12:38:06;;;;;;;0.25;0.25;;;;;;;12.43;95.02;98643.22;5084449;28;20052;-66
2023/10/11 12:40:34;;;;;;;0.20;0.20;;;;;;;12.49;95.51;98648.16;5084824;28;20021;-66